Decoded Metar for SOCA (CAYENNE in FRENCH GUYANA) (IATA:CAY) | Meteo·Mobile Aviation Weather
aviador You're here:

SOCA Decoded Metar

CAYENNE in FRENCH GUYANA
Report Time2019-10-22 06:00:00
UTC Time2019-10-22 06:22:45
Flight Rules lifr LIFR
WindCalm
Visibility9999 m
Phenomena:Fog
Clouds:Scattered 021 Hf
Scattered 042 Hf
Expected CloudBase > 400 ft AGL from Temp-Dew spread
Ceiling200 ft
Temp24°C (ISA +9)
Dew Point23°C (94% RH)
QNH1010 hPa
Density Alt1,552 ft
Elevation30 ft
Report Wrong Elevation
Raw Report
SOCA 220600Z AUTO 00000KT 9999 SCT021 SCT042 24/23 Q1010 TEMPO
0500 FG BKN002=

Extra information for SOCA:More info

Metar Taf Metar & Taf Last 4 Metars F.Rules Stats Wind Profile Meteogram Temp Stats Airport Information Weather charts Add Link Nearby VenuesMetar ALERT Operation Metar Decoded Social comments